sensor_id;sensor_type;location;lat;lon;timestamp;pressure;altitude;pressure_sealevel;temperature;humidity
13734;BME280;43298;52.560;13.508;2023-01-08T00:01:06;100347.16;;;8.48;100.00
13734;BME280;43298;52.560;13.508;2023-01-08T00:03:32;100349.75;;;8.48;100.00
13734;BME280;43298;52.560;13.508;2023-01-08T00:06:03;100352.38;;;8.46;100.00
13734;BME280;43298;52.560;13.508;2023-01-08T00:08:30;100346.81;;;8.35;100.00
13734;BME280;43298;52.560;13.508;2023-01-08T00:10:57;100335.75;;;8.33;100.00
13734;BME280;43298;52.560;13.508;2023-01-08T00:13:24;100336.88;;;8.26;100.00
13734;BME280;43298;52.560;13.508;2023-01-08T00:15:50;100325.00;;;8.21;100.00
13734;BME280;43298;52.560;13.508;2023-01-08T00:18:16;100319.78;;;8.24;100.00
13734;BME280;43298;52.560;13.508;2023-01-08T00:20:43;100327.34;;;8.28;100.00
13734;BME280;43298;52.560;13.508;2023-01-08T00:23:12;100324.47;;;8.13;100.00
13734;BME280;43298;52.560;13.508;2023-01-08T00:25:38;100322.69;;;8.15;100.00
13734;BME280;43298;52.560;13.508;2023-01-08T00:28:04;100331.72;;;8.03;100.00
13734;BME280;43298;52.560;13.508;2023-01-08T00:30:30;100323.28;;;8.00;100.00
13734;BME280;43298;52.560;13.508;2023-01-08T00:32:55;100320.94;;;7.94;100.00
13734;BME280;43298;52.560;13.508;2023-01-08T00:35:21;100311.97;;;8.04;100.00
13734;BME280;43298;52.560;13.508;2023-01-08T00:37:50;100309.38;;;8.04;100.00
13734;BME280;43298;52.560;13.508;2023-01-08T00:40:16;100315.03;;;7.90;100.00
13734;BME280;43298;52.560;13.508;2023-01-08T00:42:42;100305.94;;;7.82;100.00
13734;BME280;43298;52.560;13.508;2023-01-08T00:45:09;100296.63;;;7.78;100.00
13734;BME280;43298;52.560;13.508;2023-01-08T00:47:35;100290.69;;;7.77;100.00
13734;BME280;43298;52.560;13.508;2023-01-08T00:50:01;100276.94;;;7.77;100.00
13734;BME280;43298;52.560;13.508;2023-01-08T00:52:26;100286.28;;;7.79;100.00
13734;BME280;43298;52.560;13.508;2023-01-08T00:54:52;100275.34;;;7.74;100.00
13734;BME280;43298;52.560;13.508;2023-01-08T00:57:18;100285.41;;;7.57;100.00
13734;BME280;43298;52.560;13.508;2023-01-08T00:59:44;100277.47;;;7.63;100.00
13734;BME280;43298;52.560;13.508;2023-01-08T01:02:10;100277.84;;;7.53;100.00
13734;BME280;43298;52.560;13.508;2023-01-08T01:04:36;100268.88;;;7.41;100.00
13734;BME280;43298;52.560;13.508;2023-01-08T01:07:02;100272.56;;;7.34;100.00
13734;BME280;43298;52.560;13.508;2023-01-08T01:09:28;100263.59;;;7.44;100.00
13734;BME280;43298;52.560;13.508;2023-01-08T01:11:54;100258.75;;;7.37;100.00
13734;BME280;43298;52.560;13.508;2023-01-08T01:14:20;100261.22;;;7.40;100.00
13734;BME280;43298;52.560;13.508;2023-01-08T01:16:46;100258.59;;;7.41;100.00
13734;BME280;43298;52.560;13.508;2023-01-08T01:19:15;100260.56;;;7.33;100.00
13734;BME280;43298;52.560;13.508;2023-01-08T01:21:43;100259.91;;;7.28;100.00
13734;BME280;43298;52.560;13.508;2023-01-08T01:24:11;100260.91;;;7.24;100.00
13734;BME280;43298;52.560;13.508;2023-01-08T01:26:41;100253.25;;;7.23;100.00
13734;BME280;43298;52.560;13.508;2023-01-08T01:29:07;100253.00;;;7.30;100.00
13734;BME280;43298;52.560;13.508;2023-01-08T01:31:33;100258.00;;;7.33;100.00
13734;BME280;43298;52.560;13.508;2023-01-08T01:33:59;100261.88;;;7.22;100.00
13734;BME280;43298;52.560;13.508;2023-01-08T01:36:25;100238.19;;;7.12;100.00
13734;BME280;43298;52.560;13.508;2023-01-08T01:38:55;100243.19;;;7.17;100.00
13734;BME280;43298;52.560;13.508;2023-01-08T01:41:34;100240.44;;;7.21;100.00
13734;BME280;43298;52.560;13.508;2023-01-08T01:44:43;100231.03;;;7.22;100.00
13734;BME280;43298;52.560;13.508;2023-01-08T01:47:25;100241.34;;;7.20;100.00
13734;BME280;43298;52.560;13.508;2023-01-08T01:50:07;100246.94;;;7.31;100.00
13734;BME280;43298;52.560;13.508;2023-01-08T01:53:04;100244.25;;;7.11;100.00
13734;BME280;43298;52.560;13.508;2023-01-08T01:55:34;100235.53;;;7.15;100.00
13734;BME280;43298;52.560;13.508;2023-01-08T01:58:23;100241.00;;;7.06;100.00
13734;BME280;43298;52.560;13.508;2023-01-08T02:00:50;100218.97;;;6.99;100.00
13734;BME280;43298;52.560;13.508;2023-01-08T02:03:21;100209.66;;;6.97;100.00
13734;BME280;43298;52.560;13.508;2023-01-08T02:06:06;100217.06;;;7.04;100.00
13734;BME280;43298;52.560;13.508;2023-01-08T02:12:09;100217.66;;;6.88;100.00
13734;BME280;43298;52.560;13.508;2023-01-08T02:20:29;100197.81;;;6.68;100.00
13734;BME280;43298;52.560;13.508;2023-01-08T02:23:33;100197.56;;;6.76;100.00
13734;BME280;43298;52.560;13.508;2023-01-08T02:28:55;100185.34;;;6.58;100.00
13734;BME280;43298;52.560;13.508;2023-01-08T02:31:24;100172.28;;;6.64;100.00
13734;BME280;43298;52.560;13.508;2023-01-08T02:33:51;100158.84;;;6.56;100.00
13734;BME280;43298;52.560;13.508;2023-01-08T02:36:49;100158.66;;;6.62;100.00
13734;BME280;43298;52.560;13.508;2023-01-08T02:39:47;100161.31;;;6.59;100.00
13734;BME280;43298;52.560;13.508;2023-01-08T02:45:48;100157.38;;;6.49;100.00
13734;BME280;43298;52.560;13.508;2023-01-08T02:48:59;100155.09;;;6.41;100.00
13734;BME280;43298;52.560;13.508;2023-01-08T02:53:47;100144.47;;;6.27;100.00
13734;BME280;43298;52.560;13.508;2023-01-08T02:56:23;100151.56;;;6.19;100.00
13734;BME280;43298;52.560;13.508;2023-01-08T02:58:52;100154.94;;;6.21;100.00
13734;BME280;43298;52.560;13.508;2023-01-08T03:01:21;100139.53;;;6.21;100.00
13734;BME280;43298;52.560;13.508;2023-01-08T03:04:04;100135.16;;;6.23;100.00
13734;BME280;43298;52.560;13.508;2023-01-08T03:06:31;100126.69;;;6.21;100.00
13734;BME280;43298;52.560;13.508;2023-01-08T03:08:58;100119.94;;;6.18;100.00
13734;BME280;43298;52.560;13.508;2023-01-08T03:11:40;100122.59;;;6.15;100.00
13734;BME280;43298;52.560;13.508;2023-01-08T03:14:27;100112.66;;;6.05;100.00
13734;BME280;43298;52.560;13.508;2023-01-08T03:17:17;100121.69;;;5.92;100.00
13734;BME280;43298;52.560;13.508;2023-01-08T03:20:04;100119.41;;;5.83;100.00
13734;BME280;43298;52.560;13.508;2023-01-08T03:22:34;100119.50;;;5.78;100.00
13734;BME280;43298;52.560;13.508;2023-01-08T03:25:02;100112.75;;;5.76;100.00
13734;BME280;43298;52.560;13.508;2023-01-08T03:27:32;100124.94;;;5.69;100.00
13734;BME280;43298;52.560;13.508;2023-01-08T03:30:02;100123.75;;;5.81;100.00
13734;BME280;43298;52.560;13.508;2023-01-08T03:32:30;100123.06;;;5.74;100.00
13734;BME280;43298;52.560;13.508;2023-01-08T03:34:57;100112.75;;;5.76;100.00
13734;BME280;43298;52.560;13.508;2023-01-08T03:37:30;100105.06;;;5.76;100.00
13734;BME280;43298;52.560;13.508;2023-01-08T03:42:34;100090.72;;;5.70;100.00
13734;BME280;43298;52.560;13.508;2023-01-08T03:45:00;100092.75;;;5.61;100.00
13734;BME280;43298;52.560;13.508;2023-01-08T03:47:29;100089.31;;;5.60;100.00
13734;BME280;43298;52.560;13.508;2023-01-08T03:50:00;100090.44;;;5.52;100.00
13734;BME280;43298;52.560;13.508;2023-01-08T03:52:30;100090.25;;;5.58;100.00
13734;BME280;43298;52.560;13.508;2023-01-08T03:54:56;100085.31;;;5.52;100.00
13734;BME280;43298;52.560;13.508;2023-01-08T03:57:22;100087.88;;;5.52;100.00
13734;BME280;43298;52.560;13.508;2023-01-08T03:59:48;100103.13;;;5.56;100.00
13734;BME280;43298;52.560;13.508;2023-01-08T04:02:14;100103.03;;;5.59;100.00
13734;BME280;43298;52.560;13.508;2023-01-08T04:04:40;100102.31;;;5.56;100.00
13734;BME280;43298;52.560;13.508;2023-01-08T04:07:09;100102.19;;;5.59;100.00
13734;BME280;43298;52.560;13.508;2023-01-08T04:09:35;100102.44;;;5.51;100.00
13734;BME280;43298;52.560;13.508;2023-01-08T04:12:01;100102.59;;;5.47;100.00
13734;BME280;43298;52.560;13.508;2023-01-08T04:14:27;100098.34;;;5.46;100.00
13734;BME280;43298;52.560;13.508;2023-01-08T04:16:52;100095.41;;;5.58;100.00
13734;BME280;43298;52.560;13.508;2023-01-08T04:19:18;100100.69;;;5.52;100.00
13734;BME280;43298;52.560;13.508;2023-01-08T04:21:44;100099.28;;;5.43;100.00
13734;BME280;43298;52.560;13.508;2023-01-08T04:24:11;100099.44;;;5.39;100.00
13734;BME280;43298;52.560;13.508;2023-01-08T04:26:37;100090.16;;;5.35;100.00
13734;BME280;43298;52.560;13.508;2023-01-08T04:29:03;100093.31;;;5.43;100.00
13734;BME280;43298;52.560;13.508;2023-01-08T04:31:30;100096.88;;;5.39;100.00
13734;BME280;43298;52.560;13.508;2023-01-08T04:33:56;100094.47;;;5.33;100.00
13734;BME280;43298;52.560;13.508;2023-01-08T04:36:22;100094.44;;;5.34;100.00
13734;BME280;43298;52.560;13.508;2023-01-08T04:38:47;100086.09;;;5.28;100.00
13734;BME280;43298;52.560;13.508;2023-01-08T04:41:13;100075.19;;;5.21;100.00
13734;BME280;43298;52.560;13.508;2023-01-08T04:43:39;100061.84;;;5.10;100.00
13734;BME280;43298;52.560;13.508;2023-01-08T04:46:05;100065.13;;;5.15;100.00
13734;BME280;43298;52.560;13.508;2023-01-08T04:48:32;100055.75;;;5.14;100.00
13734;BME280;43298;52.560;13.508;2023-01-08T04:50:59;100053.47;;;5.05;100.00
13734;BME280;43298;52.560;13.508;2023-01-08T04:53:26;100050.13;;;5.03;100.00
13734;BME280;43298;52.560;13.508;2023-01-08T04:55:52;100052.94;;;4.96;100.00
13734;BME280;43298;52.560;13.508;2023-01-08T04:58:19;100042.69;;;4.96;100.00
13734;BME280;43298;52.560;13.508;2023-01-08T05:00:45;100040.13;;;4.96;100.00
13734;BME280;43298;52.560;13.508;2023-01-08T05:03:10;100041.84;;;4.95;100.00
13734;BME280;43298;52.560;13.508;2023-01-08T05:05:37;100047.91;;;4.93;100.00
13734;BME280;43298;52.560;13.508;2023-01-08T05:08:03;100058.25;;;4.88;100.00
13734;BME280;43298;52.560;13.508;2023-01-08T05:10:29;100048.78;;;4.92;100.00
13734;BME280;43298;52.560;13.508;2023-01-08T05:12:59;100041.78;;;4.97;100.00
13734;BME280;43298;52.560;13.508;2023-01-08T05:15:26;100043.88;;;5.12;100.00
13734;BME280;43298;52.560;13.508;2023-01-08T05:17:59;100032.31;;;5.26;100.00
13734;BME280;43298;52.560;13.508;2023-01-08T05:20:26;100038.94;;;5.33;100.00
13734;BME280;43298;52.560;13.508;2023-01-08T05:22:52;100038.81;;;5.38;100.00
13734;BME280;43298;52.560;13.508;2023-01-08T05:25:18;100031.09;;;5.38;100.00
13734;BME280;43298;52.560;13.508;2023-01-08T05:27:45;100039.47;;;5.43;100.00
13734;BME280;43298;52.560;13.508;2023-01-08T05:30:11;100036.13;;;5.41;100.00
13734;BME280;43298;52.560;13.508;2023-01-08T05:32:37;100031.19;;;5.35;100.00
13734;BME280;43298;52.560;13.508;2023-01-08T05:35:04;100026.75;;;5.40;100.00
13734;BME280;43298;52.560;13.508;2023-01-08T05:37:30;100024.19;;;5.40;100.00
13734;BME280;43298;52.560;13.508;2023-01-08T05:39:55;100017.31;;;5.42;100.00
13734;BME280;43298;52.560;13.508;2023-01-08T05:42:21;100022.22;;;5.48;100.00
13734;BME280;43298;52.560;13.508;2023-01-08T05:44:47;100019.38;;;5.57;100.00
13734;BME280;43298;52.560;13.508;2023-01-08T05:47:13;100027.00;;;5.84;100.00
13734;BME280;43298;52.560;13.508;2023-01-08T05:49:39;100021.09;;;6.07;100.00
13734;BME280;43298;52.560;13.508;2023-01-08T05:52:04;100012.38;;;6.11;100.00
13734;BME280;43298;52.560;13.508;2023-01-08T05:54:30;100011.13;;;6.22;100.00
13734;BME280;43298;52.560;13.508;2023-01-08T05:56:56;100014.09;;;6.35;100.00
13734;BME280;43298;52.560;13.508;2023-01-08T05:59:22;99999.69;;;6.31;100.00
13734;BME280;43298;52.560;13.508;2023-01-08T06:01:47;99993.09;;;6.47;100.00
13734;BME280;43298;52.560;13.508;2023-01-08T06:04:13;99994.66;;;6.51;100.00
13734;BME280;43298;52.560;13.508;2023-01-08T06:06:39;99998.84;;;6.54;100.00
13734;BME280;43298;52.560;13.508;2023-01-08T06:09:05;99992.88;;;6.53;100.00
13734;BME280;43298;52.560;13.508;2023-01-08T06:11:30;99996.59;;;6.68;100.00
13734;BME280;43298;52.560;13.508;2023-01-08T06:13:56;99992.19;;;6.71;100.00
13734;BME280;43298;52.560;13.508;2023-01-08T06:16:22;99995.75;;;6.67;100.00
13734;BME280;43298;52.560;13.508;2023-01-08T06:18:48;99993.47;;;6.83;100.00
13734;BME280;43298;52.560;13.508;2023-01-08T06:21:14;100000.38;;;6.81;100.00
13734;BME280;43298;52.560;13.508;2023-01-08T06:23:39;99998.53;;;6.84;100.00
13734;BME280;43298;52.560;13.508;2023-01-08T06:26:05;99994.16;;;6.86;100.00
13734;BME280;43298;52.560;13.508;2023-01-08T06:28:32;99994.53;;;6.77;100.00
13734;BME280;43298;52.560;13.508;2023-01-08T06:31:02;99987.63;;;6.78;100.00
13734;BME280;43298;52.560;13.508;2023-01-08T06:33:29;99991.81;;;6.80;100.00
13734;BME280;43298;52.560;13.508;2023-01-08T06:36:00;99991.09;;;6.77;100.00
13734;BME280;43298;52.560;13.508;2023-01-08T06:38:32;99991.97;;;6.77;100.00
13734;BME280;43298;52.560;13.508;2023-01-08T06:41:03;99993.63;;;6.78;100.00
13734;BME280;43298;52.560;13.508;2023-01-08T06:43:29;99995.47;;;6.75;100.00
13734;BME280;43298;52.560;13.508;2023-01-08T06:45:55;99997.97;;;6.76;100.00
13734;BME280;43298;52.560;13.508;2023-01-08T06:48:23;100002.09;;;6.80;100.00
13734;BME280;43298;52.560;13.508;2023-01-08T06:50:50;100004.06;;;6.74;100.00
13734;BME280;43298;52.560;13.508;2023-01-08T06:53:15;99999.88;;;6.71;100.00
13734;BME280;43298;52.560;13.508;2023-01-08T06:55:41;99998.94;;;6.74;100.00
13734;BME280;43298;52.560;13.508;2023-01-08T06:58:10;99998.97;;;6.72;100.00
13734;BME280;43298;52.560;13.508;2023-01-08T07:00:37;100005.56;;;6.79;100.00
13734;BME280;43298;52.560;13.508;2023-01-08T07:03:04;100007.44;;;6.76;100.00
13734;BME280;43298;52.560;13.508;2023-01-08T07:05:30;100007.47;;;6.74;100.00
13734;BME280;43298;52.560;13.508;2023-01-08T07:07:55;100007.47;;;6.74;100.00
13734;BME280;43298;52.560;13.508;2023-01-08T07:10:22;100012.50;;;6.77;100.00
13734;BME280;43298;52.560;13.508;2023-01-08T07:12:48;100012.16;;;6.86;100.00
13734;BME280;43298;52.560;13.508;2023-01-08T07:15:14;100013.91;;;6.86;100.00
13734;BME280;43298;52.560;13.508;2023-01-08T07:17:40;100006.78;;;6.92;100.00
13734;BME280;43298;52.560;13.508;2023-01-08T07:20:07;100009.19;;;6.97;100.00
13734;BME280;43298;52.560;13.508;2023-01-08T07:22:34;100016.75;;;7.00;100.00
13734;BME280;43298;52.560;13.508;2023-01-08T07:24:59;100015.19;;;6.96;100.00
13734;BME280;43298;52.560;13.508;2023-01-08T07:27:26;100018.72;;;6.93;100.00
13734;BME280;43298;52.560;13.508;2023-01-08T07:29:51;100019.41;;;6.98;100.00
13734;BME280;43298;52.560;13.508;2023-01-08T07:32:17;100018.38;;;7.02;100.00
13734;BME280;43298;52.560;13.508;2023-01-08T07:34:43;100013.25;;;7.02;100.00
13734;BME280;43298;52.560;13.508;2023-01-08T07:37:09;100014.00;;;7.04;100.00
13734;BME280;43298;52.560;13.508;2023-01-08T07:39:34;100014.63;;;7.11;100.00
13734;BME280;43298;52.560;13.508;2023-01-08T07:42:00;100021.53;;;7.09;100.00
13734;BME280;43298;52.560;13.508;2023-01-08T07:44:26;100029.19;;;7.10;100.00
13734;BME280;43298;52.560;13.508;2023-01-08T07:46:52;100028.19;;;7.14;100.00
13734;BME280;43298;52.560;13.508;2023-01-08T07:49:17;100034.13;;;7.16;100.00
13734;BME280;43298;52.560;13.508;2023-01-08T07:51:43;100035.00;;;7.15;100.00
13734;BME280;43298;52.560;13.508;2023-01-08T07:54:09;100032.53;;;7.12;100.00
13734;BME280;43298;52.560;13.508;2023-01-08T07:56:35;100037.50;;;7.17;100.00
13734;BME280;43298;52.560;13.508;2023-01-08T07:59:01;100031.41;;;7.19;100.00
13734;BME280;43298;52.560;13.508;2023-01-08T08:01:27;100030.69;;;7.16;100.00
13734;BME280;43298;52.560;13.508;2023-01-08T08:03:53;100024.81;;;7.12;100.00
13734;BME280;43298;52.560;13.508;2023-01-08T08:06:18;100030.06;;;7.11;100.00
13734;BME280;43298;52.560;13.508;2023-01-08T08:08:44;100016.94;;;7.17;100.00
13734;BME280;43298;52.560;13.508;2023-01-08T08:11:10;100010.91;;;7.18;100.00
13734;BME280;43298;52.560;13.508;2023-01-08T08:13:36;100010.84;;;7.19;100.00
13734;BME280;43298;52.560;13.508;2023-01-08T08:16:07;99998.88;;;7.18;100.00
13734;BME280;43298;52.560;13.508;2023-01-08T08:18:33;99997.03;;;7.22;100.00
13734;BME280;43298;52.560;13.508;2023-01-08T08:20:58;99996.13;;;7.23;100.00
13734;BME280;43298;52.560;13.508;2023-01-08T08:23:24;100000.44;;;7.22;100.00
13734;BME280;43298;52.560;13.508;2023-01-08T08:25:50;99992.66;;;7.24;100.00
13734;BME280;43298;52.560;13.508;2023-01-08T08:28:16;100002.81;;;7.27;100.00
13734;BME280;43298;52.560;13.508;2023-01-08T08:30:43;100009.75;;;7.25;100.00
13734;BME280;43298;52.560;13.508;2023-01-08T08:33:09;100006.47;;;7.21;100.00
13734;BME280;43298;52.560;13.508;2023-01-08T08:35:35;100004.03;;;7.18;100.00
13734;BME280;43298;52.560;13.508;2023-01-08T08:38:02;99993.81;;;7.17;100.00
13734;BME280;43298;52.560;13.508;2023-01-08T08:40:28;99986.19;;;7.14;100.00
13734;BME280;43298;52.560;13.508;2023-01-08T08:42:59;99987.97;;;7.13;100.00
13734;BME280;43298;52.560;13.508;2023-01-08T08:45:26;99982.56;;;7.19;100.00
13734;BME280;43298;52.560;13.508;2023-01-08T08:47:52;99975.63;;;7.21;100.00
13734;BME280;43298;52.560;13.508;2023-01-08T08:50:19;99972.16;;;7.22;100.00
13734;BME280;43298;52.560;13.508;2023-01-08T08:52:45;99975.38;;;7.27;100.00
13734;BME280;43298;52.560;13.508;2023-01-08T08:55:13;99974.31;;;7.33;100.00
13734;BME280;43298;52.560;13.508;2023-01-08T08:57:45;99974.13;;;7.37;100.00
13734;BME280;43298;52.560;13.508;2023-01-08T09:00:12;99973.09;;;7.41;100.00
13734;BME280;43298;52.560;13.508;2023-01-08T09:02:39;99967.81;;;7.44;100.00
13734;BME280;43298;52.560;13.508;2023-01-08T09:05:05;99971.16;;;7.46;100.00
13734;BME280;43298;52.560;13.508;2023-01-08T09:07:31;99974.47;;;7.50;100.00
13734;BME280;43298;52.560;13.508;2023-01-08T09:09:57;99970.91;;;7.52;100.00
13734;BME280;43298;52.560;13.508;2023-01-08T09:12:23;99967.44;;;7.53;100.00
13734;BME280;43298;52.560;13.508;2023-01-08T09:14:49;99956.13;;;7.57;100.00
13734;BME280;43298;52.560;13.508;2023-01-08T09:17:16;99945.38;;;7.68;100.00
13734;BME280;43298;52.560;13.508;2023-01-08T09:19:42;99937.44;;;7.72;100.00
13734;BME280;43298;52.560;13.508;2023-01-08T09:22:08;99942.59;;;7.72;100.00
13734;BME280;43298;52.560;13.508;2023-01-08T09:24:33;99924.47;;;7.75;100.00
13734;BME280;43298;52.560;13.508;2023-01-08T09:26:59;99921.69;;;7.80;100.00
13734;BME280;43298;52.560;13.508;2023-01-08T09:29:25;99918.78;;;7.87;100.00
13734;BME280;43298;52.560;13.508;2023-01-08T09:31:51;99926.22;;;7.93;100.00
13734;BME280;43298;52.560;13.508;2023-01-08T09:34:17;99944.00;;;7.99;100.00
13734;BME280;43298;52.560;13.508;2023-01-08T09:36:43;99945.66;;;8.00;100.00
13734;BME280;43298;52.560;13.508;2023-01-08T09:39:09;99954.28;;;7.99;100.00
13734;BME280;43298;52.560;13.508;2023-01-08T09:41:39;99959.31;;;8.02;100.00
13734;BME280;43298;52.560;13.508;2023-01-08T09:44:09;99958.66;;;7.97;100.00
13734;BME280;43298;52.560;13.508;2023-01-08T09:46:36;99959.56;;;7.96;100.00
13734;BME280;43298;52.560;13.508;2023-01-08T09:49:06;99953.66;;;7.94;100.00
13734;BME280;43298;52.560;13.508;2023-01-08T09:51:37;99958.94;;;7.91;100.00
13734;BME280;43298;52.560;13.508;2023-01-08T09:54:04;99968.38;;;7.91;100.00
13734;BME280;43298;52.560;13.508;2023-01-08T09:56:33;99971.94;;;7.88;100.00
13734;BME280;43298;52.560;13.508;2023-01-08T09:59:02;99976.22;;;7.88;100.00
13734;BME280;43298;52.560;13.508;2023-01-08T10:01:37;99972.91;;;7.86;100.00
13734;BME280;43298;52.560;13.508;2023-01-08T10:04:27;99970.28;;;7.87;100.00
13734;BME280;43298;52.560;13.508;2023-01-08T10:07:39;99961.63;;;7.88;100.00
13734;BME280;43298;52.560;13.508;2023-01-08T10:09:47;99970.97;;;7.91;100.00
13734;BME280;43298;52.560;13.508;2023-01-08T10:12:36;99960.53;;;7.94;100.00
13734;BME280;43298;52.560;13.508;2023-01-08T10:15:07;99955.19;;;7.98;100.00
13734;BME280;43298;52.560;13.508;2023-01-08T10:17:37;99942.19;;;8.01;100.00
13734;BME280;43298;52.560;13.508;2023-01-08T10:20:15;99934.72;;;7.95;100.00
13734;BME280;43298;52.560;13.508;2023-01-08T10:22:41;99928.81;;;7.93;100.00
13734;BME280;43298;52.560;13.508;2023-01-08T10:25:21;99923.84;;;7.89;100.00
13734;BME280;43298;52.560;13.508;2023-01-08T10:27:59;99914.53;;;7.86;100.00
13734;BME280;43298;52.560;13.508;2023-01-08T10:30:37;99914.59;;;7.85;100.00
13734;BME280;43298;52.560;13.508;2023-01-08T10:33:09;99914.66;;;7.83;100.00
13734;BME280;43298;52.560;13.508;2023-01-08T10:35:39;99920.72;;;7.82;100.00
13734;BME280;43298;52.560;13.508;2023-01-08T10:38:06;99918.00;;;7.85;100.00
13734;BME280;43298;52.560;13.508;2023-01-08T10:40:44;99905.00;;;7.88;100.00
13734;BME280;43298;52.560;13.508;2023-01-08T10:43:18;99917.09;;;7.86;100.00
13734;BME280;43298;52.560;13.508;2023-01-08T10:48:54;99908.00;;;7.98;100.00
13734;BME280;43298;52.560;13.508;2023-01-08T10:51:25;99904.34;;;8.03;100.00
13734;BME280;43298;52.560;13.508;2023-01-08T10:53:54;99915.13;;;8.11;100.00
13734;BME280;43298;52.560;13.508;2023-01-08T10:56:27;99917.81;;;8.08;100.00
13734;BME280;43298;52.560;13.508;2023-01-08T10:58:54;99923.13;;;8.05;100.00
13734;BME280;43298;52.560;13.508;2023-01-08T11:01:25;99912.00;;;8.05;100.00
13734;BME280;43298;52.560;13.508;2023-01-08T11:04:00;99909.47;;;8.03;100.00
13734;BME280;43298;52.560;13.508;2023-01-08T11:06:30;99898.63;;;7.97;100.00
13734;BME280;43298;52.560;13.508;2023-01-08T11:09:00;99898.63;;;7.97;100.00
13734;BME280;43298;52.560;13.508;2023-01-08T11:11:35;99902.19;;;7.94;100.00
13734;BME280;43298;52.560;13.508;2023-01-08T11:14:34;99888.41;;;7.95;100.00
13734;BME280;43298;52.560;13.508;2023-01-08T11:17:01;99881.66;;;7.93;100.00
13734;BME280;43298;52.560;13.508;2023-01-08T11:19:33;99875.59;;;7.94;100.00
13734;BME280;43298;52.560;13.508;2023-01-08T11:22:20;99870.88;;;8.03;100.00
13734;BME280;43298;52.560;13.508;2023-01-08T11:24:46;99872.88;;;8.15;100.00
13734;BME280;43298;52.560;13.508;2023-01-08T11:27:29;99869.28;;;8.19;100.00
13734;BME280;43298;52.560;13.508;2023-01-08T11:33:08;99862.06;;;8.27;100.00
13734;BME280;43298;52.560;13.508;2023-01-08T11:35:52;99862.06;;;8.27;100.00
13734;BME280;43298;52.560;13.508;2023-01-08T11:38:19;99833.59;;;8.30;100.00
13734;BME280;43298;52.560;13.508;2023-01-08T11:41:21;99844.03;;;8.27;100.00
13734;BME280;43298;52.560;13.508;2023-01-08T11:44:38;99838.75;;;8.30;100.00
13734;BME280;43298;52.560;13.508;2023-01-08T11:47:28;99841.31;;;8.30;100.00
13734;BME280;43298;52.560;13.508;2023-01-08T11:50:27;99854.34;;;8.27;100.00
13734;BME280;43298;52.560;13.508;2023-01-08T11:56:02;99842.63;;;8.20;100.00
13734;BME280;43298;52.560;13.508;2023-01-08T12:10:27;99814.69;;;8.48;100.00
13734;BME280;43298;52.560;13.508;2023-01-08T12:16:36;99805.63;;;8.58;100.00
13734;BME280;43298;52.560;13.508;2023-01-08T12:19:19;99800.53;;;8.57;100.00
13734;BME280;43298;52.560;13.508;2023-01-08T12:35:45;99778.03;;;8.77;100.00
13734;BME280;43298;52.560;13.508;2023-01-08T12:40:54;99778.63;;;8.82;100.00
13734;BME280;43298;52.560;13.508;2023-01-08T12:43:32;99781.66;;;8.90;100.00
13734;BME280;43298;52.560;13.508;2023-01-08T12:46:02;99789.69;;;8.84;100.00
13734;BME280;43298;52.560;13.508;2023-01-08T12:48:33;99787.13;;;8.84;100.00
13734;BME280;43298;52.560;13.508;2023-01-08T12:51:40;99773.53;;;8.81;100.00
13734;BME280;43298;52.560;13.508;2023-01-08T12:54:33;99775.44;;;8.77;100.00
13734;BME280;43298;52.560;13.508;2023-01-08T12:57:29;99779.69;;;8.78;100.00
13734;BME280;43298;52.560;13.508;2023-01-08T13:00:40;99781.44;;;8.78;100.00
13734;BME280;43298;52.560;13.508;2023-01-08T13:03:13;99773.59;;;8.79;100.00
13734;BME280;43298;52.560;13.508;2023-01-08T13:05:43;99778.94;;;8.76;100.00
13734;BME280;43298;52.560;13.508;2023-01-08T13:08:31;99767.78;;;8.76;100.00
13734;BME280;43298;52.560;13.508;2023-01-08T13:10:58;99775.53;;;8.76;100.00
13734;BME280;43298;52.560;13.508;2023-01-08T13:13:32;99761.63;;;8.78;100.00
13734;BME280;43298;52.560;13.508;2023-01-08T13:16:17;99762.72;;;8.74;100.00
13734;BME280;43298;52.560;13.508;2023-01-08T13:22:01;99777.56;;;8.69;100.00
13734;BME280;43298;52.560;13.508;2023-01-08T13:24:37;99774.94;;;8.71;100.00
13734;BME280;43298;52.560;13.508;2023-01-08T13:27:29;99774.44;;;8.63;100.00
13734;BME280;43298;52.560;13.508;2023-01-08T13:29:58;99768.56;;;8.61;100.00
13734;BME280;43298;52.560;13.508;2023-01-08T13:32:46;99765.34;;;8.56;100.00
13734;BME280;43298;52.560;13.508;2023-01-08T13:37:50;99765.75;;;8.48;100.00
13734;BME280;43298;52.560;13.508;2023-01-08T13:50:59;99752.06;;;8.29;100.00
13734;BME280;43298;52.560;13.508;2023-01-08T13:53:25;99761.69;;;8.26;100.00
13734;BME280;43298;52.560;13.508;2023-01-08T13:56:06;99761.13;;;8.19;100.00
13734;BME280;43298;52.560;13.508;2023-01-08T13:58:43;99757.91;;;8.14;100.00
13734;BME280;43298;52.560;13.508;2023-01-08T14:01:10;99756.31;;;8.12;100.00
13734;BME280;43298;52.560;13.508;2023-01-08T14:03:45;99755.41;;;8.13;100.00
13734;BME280;43298;52.560;13.508;2023-01-08T14:06:22;99749.78;;;8.05;100.00
13734;BME280;43298;52.560;13.508;2023-01-08T14:08:58;99753.22;;;8.05;100.00
13734;BME280;43298;52.560;13.508;2023-01-08T14:11:35;99753.81;;;8.10;100.00
13734;BME280;43298;52.560;13.508;2023-01-08T14:14:04;99743.66;;;8.07;100.00
13734;BME280;43298;52.560;13.508;2023-01-08T14:16:30;99746.38;;;8.04;100.00
13734;BME280;43298;52.560;13.508;2023-01-08T14:19:00;99744.56;;;8.06;100.00
13734;BME280;43298;52.560;13.508;2023-01-08T14:21:26;99752.66;;;7.99;100.00